Time;durP1;ratioP1;P1;durP2;ratioP2;P2;SDS_P1;SDS_P2;PMS_P1;PMS_P2;Temp;Humidity;BMP_temperature;BMP_pressure;BME280_temperature;BME280_humidity;BME280_pressure;Samples;Min_cycle;Max_cycle;Signal;HPM_P1;HPM_P2
2022/08/04 00:01:02;;;;;;;1.30;1.20;;;24.70;82.60;;;;;;4994678;28;20037;-77
2022/08/04 00:03:39;;;;;;;1.33;1.00;;;24.70;82.50;;;;;;4989211;28;20030;-76
2022/08/04 00:06:45;;;;;;;1.15;1.00;;;24.70;82.40;;;;;;4988264;28;20030;-78
2022/08/04 00:09:23;;;;;;;3.65;1.13;;;24.70;82.20;;;;;;4993823;28;20068;-77
2022/08/04 00:11:53;;;;;;;1.77;1.23;;;24.70;82.10;;;;;;4993207;28;20080;-77
2022/08/04 00:14:20;;;;;;;1.05;0.95;;;24.70;82.10;;;;;;4989082;28;20109;-77
2022/08/04 00:16:49;;;;;;;1.65;1.10;;;24.70;82.00;;;;;;4995361;28;20037;-77
2022/08/04 00:19:31;;;;;;;1.85;1.20;;;24.70;82.00;;;;;;4961478;28;20105;-77
2022/08/04 00:22:04;;;;;;;1.55;1.45;;;24.60;82.00;;;;;;4992439;28;20034;-77
2022/08/04 00:24:31;;;;;;;1.52;1.40;;;24.70;81.90;;;;;;4993850;28;20041;-78
2022/08/04 00:26:57;;;;;;;2.35;1.20;;;24.70;81.90;;;;;;4993077;28;20023;-76
2022/08/04 00:29:24;;;;;;;1.40;1.13;;;24.70;81.80;;;;;;4991173;28;20088;-77
2022/08/04 00:31:49;;;;;;;1.00;0.95;;;24.70;81.80;;;;;;4996520;28;20034;-77
2022/08/04 00:34:16;;;;;;;1.23;1.00;;;24.60;81.60;;;;;;5000236;28;20114;-77
2022/08/04 00:36:43;;;;;;;2.47;1.25;;;24.60;81.70;;;;;;4994377;28;20446;-77
2022/08/04 00:39:13;;;;;;;1.77;1.48;;;24.60;81.50;;;;;;4994353;28;20621;-78
2022/08/04 00:42:09;;;;;;;1.65;1.10;;;24.60;81.40;;;;;;5001103;28;20034;-78
2022/08/04 00:45:02;;;;;;;1.10;0.93;;;24.60;81.40;;;;;;4993221;28;20058;-77
2022/08/04 00:47:52;;;;;;;1.33;0.95;;;24.60;81.10;;;;;;4994729;28;20561;-77
2022/08/04 00:50:32;;;;;;;1.08;0.98;;;24.60;81.10;;;;;;4988339;28;20065;-78
2022/08/04 00:53:17;;;;;;;1.30;1.00;;;24.60;81.10;;;;;;4990545;28;20386;-77
2022/08/04 00:55:55;;;;;;;1.38;1.10;;;24.60;81.00;;;;;;4994395;28;20102;-77
2022/08/04 00:58:43;;;;;;;1.10;1.00;;;24.60;80.90;;;;;;4991444;28;20031;-77
2022/08/04 01:01:17;;;;;;;1.02;0.90;;;24.60;80.70;;;;;;4983833;28;20113;-77
2022/08/04 01:04:01;;;;;;;3.22;0.98;;;24.60;80.60;;;;;;5006503;28;20063;-77
2022/08/04 01:06:58;;;;;;;1.75;1.15;;;24.60;80.60;;;;;;4988059;28;20100;-77
2022/08/04 01:09:27;;;;;;;1.20;1.10;;;24.50;80.30;;;;;;4992959;28;20038;-77
2022/08/04 01:12:14;;;;;;;0.93;0.88;;;24.50;80.50;;;;;;4993967;28;20380;-78
2022/08/04 01:14:40;;;;;;;1.40;1.10;;;24.50;80.30;;;;;;4995693;28;20399;-78
2022/08/04 01:17:24;;;;;;;1.95;1.25;;;24.50;80.40;;;;;;4996320;28;20033;-77
2022/08/04 01:20:09;;;;;;;1.42;1.10;;;24.50;80.20;;;;;;4992151;28;20030;-77
2022/08/04 01:23:02;;;;;;;1.23;1.10;;;24.50;80.20;;;;;;4995152;28;20049;-77
2022/08/04 01:25:34;;;;;;;1.20;1.10;;;24.50;80.10;;;;;;4993856;28;20038;-77
2022/08/04 01:28:14;;;;;;;1.17;0.95;;;24.50;80.70;;;;;;4995438;28;20030;-78
2022/08/04 01:30:44;;;;;;;2.00;1.00;;;24.50;80.10;;;;;;4996628;28;20034;-78
2022/08/04 01:33:13;;;;;;;1.30;1.08;;;24.50;79.90;;;;;;5011698;28;20041;-77
2022/08/04 01:36:00;;;;;;;1.42;1.02;;;24.50;80.10;;;;;;4994172;28;20030;-77
2022/08/04 01:38:35;;;;;;;1.65;0.93;;;24.50;80.00;;;;;;4999612;28;20038;-78
2022/08/04 01:41:09;;;;;;;1.23;1.10;;;24.50;79.90;;;;;;4996213;28;20029;-77
2022/08/04 01:43:42;;;;;;;1.20;1.02;;;24.50;79.80;;;;;;4995022;28;20040;-77
2022/08/04 01:46:11;;;;;;;1.40;1.10;;;24.50;79.90;;;;;;4994402;28;20019;-76
2022/08/04 01:48:44;;;;;;;1.27;0.90;;;24.40;79.80;;;;;;4996515;28;20030;-77
2022/08/04 01:51:10;;;;;;;1.50;1.20;;;24.50;79.80;;;;;;4997758;28;20033;-77
2022/08/04 01:53:41;;;;;;;1.30;1.00;;;24.40;79.70;;;;;;4996596;28;20117;-78
2022/08/04 01:56:09;;;;;;;1.20;1.08;;;24.40;79.70;;;;;;4996180;28;20037;-77
2022/08/04 01:58:36;;;;;;;1.05;0.95;;;24.40;79.70;;;;;;4996681;28;20090;-77
2022/08/04 02:01:12;;;;;;;1.10;0.98;;;24.40;79.50;;;;;;4994030;28;20026;-77
2022/08/04 02:03:44;;;;;;;1.30;1.10;;;24.40;79.40;;;;;;4992564;28;20352;-77
2022/08/04 02:06:22;;;;;;;1.80;1.10;;;24.40;79.50;;;;;;4993991;28;20430;-77
2022/08/04 02:08:59;;;;;;;1.52;1.42;;;24.40;79.90;;;;;;4995036;28;20022;-78
2022/08/04 02:11:25;;;;;;;1.27;1.17;;;24.40;79.50;;;;;;4996235;28;20026;-77
2022/08/04 02:14:42;;;;;;;1.55;1.10;;;24.40;80.00;;;;;;4995859;28;20439;-78
2022/08/04 02:17:13;;;;;;;1.85;1.10;;;24.40;79.20;;;;;;4977180;28;20038;-78
2022/08/04 02:19:58;;;;;;;1.23;0.90;;;24.40;79.10;;;;;;4995518;28;20165;-76
2022/08/04 02:22:27;;;;;;;1.58;0.82;;;24.40;79.00;;;;;;4993535;28;20419;-78
2022/08/04 02:25:06;;;;;;;1.05;0.90;;;24.40;79.10;;;;;;4991440;28;20041;-76
2022/08/04 02:27:49;;;;;;;1.23;1.10;;;24.40;79.00;;;;;;4991884;28;20091;-77
2022/08/04 02:30:16;;;;;;;1.67;1.10;;;24.40;79.00;;;;;;4992205;28;20022;-77
2022/08/04 02:32:45;;;;;;;1.70;1.10;;;24.40;78.90;;;;;;4993308;28;20101;-76
2022/08/04 02:35:13;;;;;;;1.95;1.10;;;24.40;78.90;;;;;;4987286;28;20035;-77
2022/08/04 02:37:46;;;;;;;1.42;1.20;;;24.30;78.80;;;;;;4989375;28;20026;-77
2022/08/04 02:40:14;;;;;;;1.10;1.00;;;24.30;78.80;;;;;;4989093;28;20522;-77
2022/08/04 02:42:40;;;;;;;1.25;1.00;;;24.30;78.70;;;;;;4999299;28;20380;-77
2022/08/04 02:45:07;;;;;;;1.23;1.00;;;24.30;78.60;;;;;;4988831;28;20049;-77
2022/08/04 02:47:34;;;;;;;1.23;1.10;;;24.30;78.50;;;;;;4992853;28;20194;-78
2022/08/04 02:50:01;;;;;;;1.42;0.88;;;24.30;78.60;;;;;;4990176;28;20022;-77
2022/08/04 02:52:29;;;;;;;1.40;1.05;;;24.30;78.40;;;;;;4997582;28;20407;-77
2022/08/04 02:54:57;;;;;;;0.98;0.88;;;24.30;78.40;;;;;;4999718;28;20714;-77
2022/08/04 02:57:28;;;;;;;0.82;0.80;;;24.30;78.40;;;;;;4987659;28;20034;-77
2022/08/04 03:00:13;;;;;;;1.30;1.00;;;24.30;78.30;;;;;;4989196;28;20023;-77
2022/08/04 03:03:04;;;;;;;1.58;1.20;;;24.30;78.30;;;;;;4986249;28;20502;-78
2022/08/04 03:06:18;;;;;;;1.38;1.17;;;24.30;78.10;;;;;;5016854;28;20042;-76
2022/08/04 03:09:05;;;;;;;1.38;1.10;;;24.30;78.00;;;;;;4997925;28;20057;-77
2022/08/04 03:12:01;;;;;;;1.20;1.08;;;24.30;78.10;;;;;;4990958;28;20057;-77
2022/08/04 03:14:47;;;;;;;1.17;1.08;;;24.30;78.00;;;;;;4997286;28;20026;-77
2022/08/04 03:17:41;;;;;;;1.20;0.90;;;24.20;78.00;;;;;;4992484;28;20045;-77
2022/08/04 03:20:32;;;;;;;1.25;1.00;;;24.30;78.00;;;;;;4992295;28;20026;-77
2022/08/04 03:23:17;;;;;;;0.80;0.80;;;24.20;77.90;;;;;;5006453;28;20117;-77
2022/08/04 03:26:20;;;;;;;1.27;0.98;;;24.20;77.80;;;;;;4991922;28;20623;-77
2022/08/04 03:29:23;;;;;;;1.92;0.90;;;24.20;77.80;;;;;;4995345;28;20031;-77
2022/08/04 03:32:07;;;;;;;1.00;0.90;;;24.20;77.70;;;;;;4985640;28;20442;-77
2022/08/04 03:34:33;;;;;;;1.38;1.08;;;24.20;77.70;;;;;;4991164;28;20490;-77
2022/08/04 03:37:01;;;;;;;1.30;0.90;;;24.20;77.70;;;;;;4993920;28;20038;-77
2022/08/04 03:39:47;;;;;;;1.70;1.20;;;24.20;77.70;;;;;;4989717;28;20053;-77
2022/08/04 03:42:38;;;;;;;1.80;1.10;;;24.20;77.80;;;;;;5005778;28;20037;-76
2022/08/04 03:45:40;;;;;;;1.33;1.20;;;24.20;77.50;;;;;;4998093;28;20023;-77
2022/08/04 03:48:11;;;;;;;1.05;0.85;;;24.20;77.50;;;;;;5004775;28;20034;-77
2022/08/04 03:53:07;;;;;;;1.33;0.90;;;24.20;77.50;;;;;;4998116;28;20026;-77
2022/08/04 03:54:14;;;;;;;1.10;1.00;;;24.20;77.50;;;;;;5001019;28;20103;-76
2022/08/04 03:57:09;;;;;;;1.08;0.80;;;24.20;77.40;;;;;;4974242;28;20038;-77
2022/08/04 03:59:53;;;;;;;1.17;0.90;;;24.20;77.40;;;;;;4993677;28;20158;-77
2022/08/04 04:02:49;;;;;;;1.33;1.00;;;24.20;77.40;;;;;;4994270;28;20030;-77
2022/08/04 04:05:37;;;;;;;1.20;1.00;;;24.10;77.10;;;;;;5008002;28;20041;-77
2022/08/04 04:08:21;;;;;;;1.20;0.93;;;24.10;77.30;;;;;;4999216;28;20026;-77
2022/08/04 04:11:33;;;;;;;1.15;0.90;;;24.10;78.30;;;;;;4993750;28;20026;-77
2022/08/04 04:14:25;;;;;;;1.55;1.00;;;24.10;79.50;;;;;;4984172;28;20491;-77
2022/08/04 04:17:00;;;;;;;2.63;1.20;;;24.10;79.90;;;;;;4998440;28;20045;-77
2022/08/04 04:19:48;;;;;;;1.30;1.10;;;24.00;80.00;;;;;;4997931;28;20487;-77
2022/08/04 04:22:22;;;;;;;1.30;1.20;;;24.00;80.00;;;;;;5000950;28;20030;-77
2022/08/04 04:25:03;;;;;;;1.05;1.00;;;23.90;80.00;;;;;;5001675;28;20026;-77
2022/08/04 04:27:45;;;;;;;1.20;1.10;;;23.90;80.20;;;;;;4993566;28;20054;-77
2022/08/04 04:30:29;;;;;;;0.95;0.93;;;23.80;80.30;;;;;;5008674;28;20034;-77
2022/08/04 04:33:17;;;;;;;1.13;1.00;;;23.80;80.70;;;;;;4990415;28;20498;-77
2022/08/04 04:35:51;;;;;;;1.08;0.95;;;23.80;80.90;;;;;;4991527;28;20030;-77
2022/08/04 04:38:58;;;;;;;0.82;0.82;;;23.70;81.20;;;;;;4999024;28;20491;-77
2022/08/04 04:42:11;;;;;;;1.35;1.00;;;23.70;81.50;;;;;;4998950;28;20033;-76
2022/08/04 04:45:03;;;;;;;1.58;1.30;;;23.70;81.70;;;;;;4993621;28;20034;-77
2022/08/04 04:47:47;;;;;;;1.60;1.00;;;23.70;81.90;;;;;;4985549;28;20412;-77
2022/08/04 04:50:28;;;;;;;1.25;0.82;;;23.60;82.10;;;;;;4992549;28;20109;-77
2022/08/04 04:53:06;;;;;;;1.75;1.20;;;23.60;82.30;;;;;;5002983;28;20038;-77
2022/08/04 04:55:43;;;;;;;1.33;1.23;;;23.60;82.40;;;;;;4998028;28;20173;-77
2022/08/04 04:58:15;;;;;;;3.05;2.00;;;23.60;82.50;;;;;;4995236;28;20034;-78
2022/08/04 05:00:44;;;;;;;1.85;1.15;;;23.60;82.70;;;;;;4993314;28;20053;-77
2022/08/04 05:03:16;;;;;;;1.70;1.50;;;23.60;82.90;;;;;;4989195;28;20027;-77
2022/08/04 05:06:07;;;;;;;1.23;1.10;;;23.60;82.90;;;;;;4990936;28;20031;-77
2022/08/04 05:09:16;;;;;;;1.38;1.20;;;23.60;83.10;;;;;;4992995;28;20030;-77
2022/08/04 05:11:57;;;;;;;1.45;1.27;;;23.50;83.10;;;;;;4990264;28;20050;-77
2022/08/04 05:14:33;;;;;;;1.17;1.00;;;23.60;83.40;;;;;;4995222;28;20019;-77
2022/08/04 05:17:05;;;;;;;1.70;1.30;;;23.60;83.40;;;;;;4991720;28;20022;-77
2022/08/04 05:20:08;;;;;;;1.65;1.55;;;23.60;83.50;;;;;;4994556;28;20694;-77
2022/08/04 05:22:52;;;;;;;1.38;1.13;;;23.50;83.60;;;;;;5002049;28;20040;-77
2022/08/04 05:25:20;;;;;;;2.10;1.40;;;23.50;83.70;;;;;;4995851;28;20031;-77
2022/08/04 05:28:10;;;;;;;1.30;1.20;;;23.50;83.80;;;;;;4991894;28;20026;-76
2022/08/04 05:30:47;;;;;;;1.45;1.23;;;23.50;83.90;;;;;;4987656;28;20522;-76
2022/08/04 05:33:34;;;;;;;1.30;1.20;;;23.50;83.90;;;;;;4990436;28;20540;-77
2022/08/04 05:36:07;;;;;;;1.20;1.10;;;23.50;84.00;;;;;;4983362;28;20582;-76
2022/08/04 05:38:39;;;;;;;2.60;1.80;;;23.50;84.10;;;;;;4991924;28;20033;-76
2022/08/04 05:41:08;;;;;;;1.35;1.20;;;23.50;84.20;;;;;;4989310;28;20027;-77
2022/08/04 05:43:36;;;;;;;1.08;1.05;;;23.50;84.20;;;;;;4993717;28;20038;-77
2022/08/04 05:46:04;;;;;;;1.30;1.20;;;23.50;84.30;;;;;;4997046;28;20030;-76
2022/08/04 05:48:32;;;;;;;1.20;1.10;;;23.50;84.30;;;;;;4990569;28;20054;-76
2022/08/04 05:50:58;;;;;;;1.75;1.42;;;23.50;84.30;;;;;;4988769;28;20494;-76
2022/08/04 05:53:26;;;;;;;1.35;1.08;;;23.50;84.40;;;;;;4988207;28;20549;-76
2022/08/04 05:55:52;;;;;;;1.65;1.45;;;23.50;84.40;;;;;;4991519;28;20038;-76
2022/08/04 05:58:19;;;;;;;1.55;1.45;;;23.50;84.50;;;;;;4992422;28;20028;-76
2022/08/04 06:00:45;;;;;;;1.08;0.90;;;23.50;84.50;;;;;;4991735;28;20077;-76
2022/08/04 06:03:13;;;;;;;1.10;0.90;;;23.50;84.60;;;;;;4997103;28;20033;-76
2022/08/04 06:05:41;;;;;;;1.00;0.90;;;23.50;84.60;;;;;;4989085;28;20487;-76
2022/08/04 06:08:07;;;;;;;0.98;0.80;;;23.50;84.60;;;;;;4990518;28;20104;-76
2022/08/04 06:10:38;;;;;;;1.33;1.15;;;23.50;84.70;;;;;;4990118;28;20487;-76
2022/08/04 06:13:11;;;;;;;1.40;1.00;;;23.50;84.70;;;;;;4988340;28;20084;-76
2022/08/04 06:15:41;;;;;;;1.13;1.02;;;23.50;84.80;;;;;;4987175;28;20030;-75
2022/08/04 06:18:09;;;;;;;1.10;1.00;;;23.50;84.80;;;;;;4997729;28;20039;-76
2022/08/04 06:20:37;;;;;;;1.15;1.05;;;23.50;84.90;;;;;;4993562;28;20080;-76
2022/08/04 06:23:13;;;;;;;1.20;1.10;;;23.50;84.90;;;;;;4984861;28;20037;-76
2022/08/04 06:25:47;;;;;;;1.17;1.00;;;23.50;84.90;;;;;;4988716;28;20023;-76
2022/08/04 06:28:15;;;;;;;1.40;1.30;;;23.50;84.90;;;;;;4998295;28;20071;-76
2022/08/04 06:30:41;;;;;;;1.35;1.23;;;23.50;85.00;;;;;;4993608;28;20574;-76
2022/08/04 06:33:26;;;;;;;2.38;1.23;;;23.50;85.00;;;;;;4994076;28;20034;-76
2022/08/04 06:35:56;;;;;;;1.50;1.05;;;23.50;85.10;;;;;;4991121;28;20031;-76
2022/08/04 06:38:24;;;;;;;1.27;0.90;;;23.50;85.10;;;;;;4990387;28;20029;-77
2022/08/04 06:40:52;;;;;;;1.20;1.10;;;23.50;85.10;;;;;;4990966;28;20364;-76
2022/08/04 06:43:18;;;;;;;1.20;1.10;;;23.50;85.20;;;;;;4990832;28;20030;-76
2022/08/04 06:45:46;;;;;;;1.20;1.10;;;23.50;85.20;;;;;;4993501;28;20029;-76
2022/08/04 06:48:15;;;;;;;1.02;0.93;;;23.50;85.20;;;;;;4989607;28;20022;-76
2022/08/04 06:50:44;;;;;;;1.75;1.13;;;23.50;85.20;;;;;;4991628;28;20057;-77
2022/08/04 06:53:10;;;;;;;1.40;1.00;;;23.50;85.20;;;;;;4987327;28;20389;-77
2022/08/04 06:55:37;;;;;;;2.05;1.40;;;23.60;85.40;;;;;;4982090;28;20060;-76
2022/08/04 06:58:03;;;;;;;1.10;1.00;;;23.60;85.40;;;;;;4986957;28;20031;-76
2022/08/04 07:00:31;;;;;;;0.88;0.88;;;23.60;85.40;;;;;;4992913;28;20549;-76
2022/08/04 07:02:58;;;;;;;1.10;1.00;;;23.50;85.40;;;;;;4985856;28;20046;-76
2022/08/04 07:05:24;;;;;;;1.65;1.13;;;23.60;85.50;;;;;;4982644;28;20022;-76
2022/08/04 07:07:50;;;;;;;1.25;1.15;;;23.50;85.50;;;;;;4990246;28;20033;-76
2022/08/04 07:10:17;;;;;;;1.15;1.05;;;23.50;85.50;;;;;;4976093;28;20028;-76
2022/08/04 07:12:44;;;;;;;3.25;1.15;;;23.50;85.60;;;;;;4986715;28;20030;-76
2022/08/04 07:15:10;;;;;;;1.35;1.00;;;23.50;85.60;;;;;;4989661;28;20027;-76
2022/08/04 07:17:37;;;;;;;1.33;1.00;;;23.60;85.70;;;;;;4994359;28;20037;-76
2022/08/04 07:20:04;;;;;;;0.88;0.88;;;23.60;85.70;;;;;;4996763;28;20034;-75
2022/08/04 07:22:31;;;;;;;1.42;1.17;;;23.60;85.80;;;;;;4984847;28;20026;-75
2022/08/04 07:24:58;;;;;;;1.10;1.00;;;23.50;85.70;;;;;;4991525;28;20038;-76
2022/08/04 07:27:25;;;;;;;1.20;1.02;;;23.60;85.90;;;;;;4992298;28;20113;-76
2022/08/04 07:29:51;;;;;;;1.80;1.00;;;23.60;85.90;;;;;;4995226;28;20383;-76
2022/08/04 07:32:19;;;;;;;1.38;1.27;;;23.50;85.80;;;;;;4991772;28;20083;-76
2022/08/04 07:34:49;;;;;;;1.75;1.20;;;23.50;85.90;;;;;;4995941;28;20386;-76
2022/08/04 07:37:15;;;;;;;1.30;1.20;;;23.60;86.00;;;;;;4992809;28;20030;-75
2022/08/04 07:39:41;;;;;;;2.00;1.27;;;23.60;86.00;;;;;;5004605;28;20461;-76
2022/08/04 07:42:07;;;;;;;1.10;0.90;;;23.50;85.90;;;;;;4993149;28;20072;-76
2022/08/04 07:44:34;;;;;;;1.17;0.80;;;23.60;86.00;;;;;;4996598;28;20405;-76
2022/08/04 07:47:03;;;;;;;1.40;1.30;;;23.50;86.00;;;;;;4988700;28;20023;-76
2022/08/04 07:49:29;;;;;;;1.10;1.00;;;23.50;86.00;;;;;;4986506;28;20178;-76
2022/08/04 07:51:55;;;;;;;1.20;1.10;;;23.60;86.10;;;;;;4992452;28;20026;-76
2022/08/04 07:54:22;;;;;;;0.88;0.85;;;23.60;86.10;;;;;;4991113;28;20121;-76
2022/08/04 07:56:50;;;;;;;1.38;1.25;;;23.50;86.10;;;;;;4992719;28;20057;-76
2022/08/04 07:59:17;;;;;;;1.63;1.38;;;23.60;86.20;;;;;;4998680;28;20027;-75
2022/08/04 08:01:43;;;;;;;1.75;1.60;;;23.50;86.10;;;;;;4990873;28;20058;-76
2022/08/04 08:04:10;;;;;;;1.10;1.00;;;23.60;86.20;;;;;;4986802;28;20373;-76
2022/08/04 08:06:39;;;;;;;1.75;1.50;;;23.60;86.30;;;;;;4990351;28;20023;-76
2022/08/04 08:09:11;;;;;;;1.48;1.08;;;23.60;86.30;;;;;;4987745;28;20550;-76
2022/08/04 08:11:37;;;;;;;1.23;1.13;;;23.60;86.30;;;;;;4993321;28;20022;-76
2022/08/04 08:14:03;;;;;;;1.20;1.10;;;23.60;86.30;;;;;;4991401;28;20018;-76
2022/08/04 08:16:32;;;;;;;1.30;1.20;;;23.50;86.30;;;;;;4995374;28;20019;-76
2022/08/04 08:19:01;;;;;;;1.45;1.20;;;23.60;86.30;;;;;;4991219;28;20023;-76
2022/08/04 08:21:27;;;;;;;1.25;1.15;;;23.50;86.30;;;;;;4993593;28;20037;-76
2022/08/04 08:23:53;;;;;;;2.03;1.40;;;23.50;86.30;;;;;;4989113;28;20034;-76
2022/08/04 08:26:19;;;;;;;1.40;1.30;;;23.60;86.40;;;;;;4998131;28;20080;-76
2022/08/04 08:28:45;;;;;;;1.25;1.15;;;23.50;86.30;;;;;;4996203;28;20030;-75
2022/08/04 08:31:11;;;;;;;1.52;1.40;;;23.50;86.30;;;;;;4998599;28;20031;-76
2022/08/04 08:33:38;;;;;;;1.45;1.35;;;23.50;86.40;;;;;;4995267;28;20566;-76
2022/08/04 08:36:08;;;;;;;1.10;1.00;;;23.50;86.40;;;;;;4990745;28;20181;-76
2022/08/04 08:38:53;;;;;;;2.35;1.17;;;23.50;86.40;;;;;;4991201;28;20022;-76
2022/08/04 08:41:18;;;;;;;1.48;1.17;;;23.50;86.50;;;;;;4990465;28;20049;-77
2022/08/04 08:44:15;;;;;;;1.45;1.35;;;23.50;86.50;;;;;;4997907;28;20490;-76
2022/08/04 08:46:53;;;;;;;1.15;1.05;;;23.50;86.50;;;;;;4992040;28;20111;-76
2022/08/04 08:49:43;;;;;;;1.73;1.52;;;23.50;86.50;;;;;;5000662;28;20513;-76
2022/08/04 08:52:30;;;;;;;1.38;1.15;;;23.50;86.50;;;;;;4987259;28;20144;-76
2022/08/04 08:55:05;;;;;;;1.45;1.25;;;23.50;86.60;;;;;;4993850;28;20033;-76
2022/08/04 08:57:37;;;;;;;1.50;1.40;;;23.50;86.60;;;;;;4992147;28;20041;-76
2022/08/04 09:00:15;;;;;;;1.88;1.50;;;23.50;86.60;;;;;;4992363;28;20034;-76
2022/08/04 09:03:16;;;;;;;1.48;1.38;;;23.50;86.70;;;;;;4992529;28;20085;-76
2022/08/04 09:06:04;;;;;;;1.95;1.63;;;23.50;86.70;;;;;;4982680;28;20034;-76
2022/08/04 09:09:05;;;;;;;1.98;1.50;;;23.50;86.70;;;;;;5002807;28;20058;-76
2022/08/04 09:11:53;;;;;;;2.33;1.70;;;23.50;86.70;;;;;;4993595;28;20030;-76
2022/08/04 09:14:24;;;;;;;1.67;1.30;;;23.50;86.70;;;;;;4991133;28;20447;-76
2022/08/04 09:17:01;;;;;;;1.52;1.30;;;23.50;86.70;;;;;;4992212;28;20387;-76
2022/08/04 09:19:41;;;;;;;1.52;1.30;;;23.50;86.70;;;;;;4992795;28;20049;-77
2022/08/04 09:22:39;;;;;;;1.30;1.20;;;23.50;86.80;;;;;;4987919;28;20073;-76
2022/08/04 09:25:24;;;;;;;1.58;1.48;;;23.50;86.80;;;;;;4967534;28;20063;-76
2022/08/04 09:27:57;;;;;;;1.52;1.40;;;23.50;86.80;;;;;;4991678;28;20030;-76
2022/08/04 09:30:46;;;;;;;1.90;1.63;;;23.50;86.90;;;;;;4989479;28;20065;-76
2022/08/04 09:33:35;;;;;;;1.67;1.58;;;23.50;86.90;;;;;;4990166;28;20294;-76
2022/08/04 09:36:25;;;;;;;1.45;1.30;;;23.50;86.90;;;;;;4991671;28;20065;-76
2022/08/04 09:39:29;;;;;;;3.83;2.22;;;23.50;87.00;;;;;;4993559;28;20023;-76
2022/08/04 09:42:15;;;;;;;;;;;23.50;86.90;;;;;;5003098;28;20030;-76
2022/08/04 09:45:14;;;;;;;1.70;1.50;;;23.50;87.00;;;;;;4992413;28;19956;-76
2022/08/04 09:47:48;;;;;;;1.70;1.45;;;23.50;87.00;;;;;;4993242;28;20088;-76
2022/08/04 09:50:24;;;;;;;1.58;1.48;;;23.50;87.00;;;;;;4989172;28;20030;-76
2022/08/04 09:53:29;;;;;;;1.35;1.25;;;23.50;87.00;;;;;;5003928;28;20027;-76
2022/08/04 09:56:24;;;;;;;1.77;1.60;;;23.50;87.00;;;;;;4985763;28;20023;-76
2022/08/04 09:58:58;;;;;;;1.90;1.58;;;23.50;87.00;;;;;;4993631;28;20036;-76
2022/08/04 10:01:29;;;;;;;1.25;1.15;;;23.50;87.00;;;;;;4986158;28;20073;-76
2022/08/04 10:03:59;;;;;;;1.58;1.30;;;23.50;87.10;;;;;;4991926;28;20109;-76
2022/08/04 10:06:48;;;;;;;1.70;1.50;;;23.50;87.10;;;;;;4990471;28;20069;-76
2022/08/04 10:09:41;;;;;;;1.77;1.38;;;23.50;87.00;;;;;;4992215;28;20026;-76
2022/08/04 10:12:22;;;;;;;1.75;1.50;;;23.60;87.10;;;;;;4990541;28;20049;-76
2022/08/04 10:14:54;;;;;;;1.60;1.50;;;23.60;87.10;;;;;;4998386;28;20538;-76
2022/08/04 10:17:34;;;;;;;1.55;1.45;;;23.60;87.10;;;;;;4994014;28;20037;-76
2022/08/04 10:20:39;;;;;;;1.60;1.50;;;23.60;87.10;;;;;;4986783;28;20058;-76
2022/08/04 10:23:22;;;;;;;1.70;1.60;;;23.60;87.10;;;;;;4994249;28;20038;-76
2022/08/04 10:26:19;;;;;;;1.55;1.20;;;23.60;87.10;;;;;;4998446;28;20085;-77
2022/08/04 10:28:52;;;;;;;4.13;1.80;;;23.60;87.10;;;;;;4999225;28;20039;-76
2022/08/04 10:31:31;;;;;;;2.28;1.45;;;23.60;87.10;;;;;;4991281;28;20110;-76
2022/08/04 10:34:21;;;;;;;1.42;1.33;;;23.60;87.10;;;;;;4995921;28;20406;-76
2022/08/04 10:37:08;;;;;;;1.73;1.60;;;23.60;87.20;;;;;;5007905;28;20065;-77
2022/08/04 10:39:41;;;;;;;3.17;1.63;;;23.60;87.20;;;;;;4997228;28;20034;-77
2022/08/04 10:42:29;;;;;;;1.63;1.52;;;23.60;87.20;;;;;;4995209;28;20038;-76
2022/08/04 10:45:16;;;;;;;1.60;1.50;;;23.60;87.20;;;;;;4986445;28;20064;-77
2022/08/04 10:47:56;;;;;;;3.95;1.90;;;23.60;87.20;;;;;;4992064;28;20395;-77
2022/08/04 10:50:24;;;;;;;1.77;1.55;;;23.60;87.20;;;;;;4992331;28;20026;-76
2022/08/04 10:53:13;;;;;;;2.83;1.75;;;23.60;87.30;;;;;;4988434;28;20038;-76
2022/08/04 10:55:49;;;;;;;1.75;1.65;;;23.60;87.30;;;;;;4981809;28;20030;-77
2022/08/04 10:58:23;;;;;;;1.85;1.52;;;23.60;87.30;;;;;;4989521;28;20467;-77
2022/08/04 11:00:55;;;;;;;1.42;1.33;;;23.60;87.30;;;;;;4985844;28;20483;-77
2022/08/04 11:03:34;;;;;;;2.75;1.65;;;23.60;87.30;;;;;;4991363;28;20030;-77
2022/08/04 11:06:03;;;;;;;2.17;1.98;;;23.60;87.30;;;;;;4991067;28;20108;-77
2022/08/04 11:08:36;;;;;;;1.50;1.40;;;23.60;87.30;;;;;;4998631;28;20030;-77
2022/08/04 11:11:40;;;;;;;1.87;1.60;;;23.60;87.30;;;;;;4994366;28;20483;-77
2022/08/04 11:14:18;;;;;;;1.58;1.45;;;23.60;87.30;;;;;;4947546;28;20279;-76
2022/08/04 11:16:50;;;;;;;1.70;1.60;;;23.60;87.30;;;;;;4983249;28;20053;-76
2022/08/04 11:19:34;;;;;;;1.67;1.57;;;23.60;87.20;;;;;;4993934;28;20080;-77
2022/08/04 11:22:30;;;;;;;1.83;1.70;;;23.60;87.30;;;;;;4981262;28;20026;-77
2022/08/04 11:24:58;;;;;;;2.00;1.50;;;23.60;87.20;;;;;;4980379;28;20049;-77
2022/08/04 11:27:49;;;;;;;1.73;1.60;;;23.60;87.30;;;;;;4991586;28;20018;-77
2022/08/04 11:30:17;;;;;;;1.50;1.40;;;23.60;87.30;;;;;;4987264;28;20268;-76
2022/08/04 11:32:57;;;;;;;1.92;1.63;;;23.60;87.30;;;;;;4989531;28;20049;-75
2022/08/04 11:35:48;;;;;;;2.80;2.40;;;23.60;87.20;;;;;;4985370;28;20475;-77
2022/08/04 11:38:35;;;;;;;2.67;2.33;;;23.60;87.30;;;;;;4989544;28;20030;-77
2022/08/04 11:41:09;;;;;;;2.00;1.75;;;23.60;87.20;;;;;;4982145;28;20038;-76
2022/08/04 11:43:43;;;;;;;1.80;1.42;;;23.60;87.20;;;;;;4986440;28;20443;-76
2022/08/04 11:46:14;;;;;;;1.60;1.50;;;23.60;87.20;;;;;;4988081;28;20030;-76
2022/08/04 11:49:00;;;;;;;2.25;1.80;;;23.60;87.30;;;;;;4986680;28;20121;-77
2022/08/04 11:51:27;;;;;;;1.60;1.50;;;23.60;87.10;;;;;;4989049;28;20049;-77
2022/08/04 11:53:54;;;;;;;1.55;1.45;;;23.60;87.20;;;;;;4990807;28;20033;-77
2022/08/04 11:56:20;;;;;;;4.47;1.42;;;23.60;87.20;;;;;;4989068;28;20049;-77
2022/08/04 11:58:46;;;;;;;2.13;1.77;;;23.60;87.20;;;;;;4986075;28;20026;-77
2022/08/04 12:01:34;;;;;;;1.60;1.50;;;23.70;87.20;;;;;;4980752;28;20035;-77
2022/08/04 12:04:33;;;;;;;4.15;1.77;;;23.60;87.20;;;;;;4989309;28;20443;-76
2022/08/04 12:07:27;;;;;;;2.53;2.17;;;23.60;87.10;;;;;;4977450;28;20046;-76
2022/08/04 12:10:27;;;;;;;1.83;1.60;;;23.70;87.10;;;;;;5002466;28;20026;-76
2022/08/04 12:13:09;;;;;;;2.88;1.90;;;23.70;87.10;;;;;;4985986;28;20030;-76
2022/08/04 12:15:48;;;;;;;1.75;1.63;;;23.70;87.20;;;;;;5002803;28;20049;-76
2022/08/04 12:18:39;;;;;;;2.72;1.52;;;23.70;87.20;;;;;;4991419;28;20054;-76
2022/08/04 12:21:13;;;;;;;3.95;1.52;;;23.70;87.10;;;;;;4987559;28;20113;-77
2022/08/04 12:23:40;;;;;;;2.40;1.88;;;23.70;87.20;;;;;;4986849;28;20574;-76
2022/08/04 12:26:39;;;;;;;2.65;1.55;;;23.70;87.20;;;;;;4986771;28;20030;-76
2022/08/04 12:29:06;;;;;;;1.48;1.35;;;23.70;87.20;;;;;;4986932;28;20399;-76
2022/08/04 12:31:39;;;;;;;2.00;1.58;;;23.70;87.20;;;;;;4990631;28;20049;-76
2022/08/04 12:34:32;;;;;;;2.25;1.80;;;23.70;87.30;;;;;;4989661;28;20029;-76
2022/08/04 12:37:01;;;;;;;2.72;1.60;;;23.70;87.10;;;;;;4992747;28;20113;-76
2022/08/04 12:39:30;;;;;;;1.80;1.70;;;23.70;87.10;;;;;;4986135;28;20027;-76
2022/08/04 12:42:10;;;;;;;2.50;1.90;;;23.70;87.20;;;;;;4990036;28;20034;-77
2022/08/04 12:44:39;;;;;;;2.08;1.70;;;23.70;87.20;;;;;;4989974;28;20032;-77
2022/08/04 12:47:13;;;;;;;2.22;1.52;;;23.70;87.10;;;;;;4984480;28;20030;-78
2022/08/04 12:49:43;;;;;;;4.75;1.65;;;23.70;87.20;;;;;;5010069;28;20026;-77
2022/08/04 12:52:13;;;;;;;1.80;1.70;;;23.70;87.20;;;;;;4988780;28;20034;-77
2022/08/04 12:54:42;;;;;;;1.85;1.60;;;23.70;87.20;;;;;;5001987;28;20030;-77
2022/08/04 12:57:10;;;;;;;2.03;1.83;;;23.70;87.20;;;;;;4989383;28;20511;-77
2022/08/04 12:59:48;;;;;;;2.05;1.77;;;23.70;87.30;;;;;;4996626;28;20053;-77
2022/08/04 13:02:26;;;;;;;3.60;1.60;;;23.70;87.20;;;;;;4992097;28;20041;-76
2022/08/04 13:04:59;;;;;;;2.17;1.60;;;23.80;87.30;;;;;;4985791;28;20030;-76
2022/08/04 13:07:27;;;;;;;3.20;1.88;;;23.70;87.30;;;;;;4971425;28;20053;-76
2022/08/04 13:09:53;;;;;;;2.25;1.77;;;23.70;87.40;;;;;;4997758;28;20045;-77
2022/08/04 13:12:28;;;;;;;2.80;1.70;;;23.70;87.30;;;;;;4988984;28;20038;-76
2022/08/04 13:15:07;;;;;;;2.80;1.70;;;23.70;87.40;;;;;;4992150;28;20331;-77
2022/08/04 13:18:09;;;;;;;4.93;1.55;;;23.80;87.40;;;;;;4985179;28;20410;-77
2022/08/04 13:20:36;;;;;;;4.20;2.30;;;23.70;87.30;;;;;;4987243;28;20157;-77
2022/08/04 13:23:09;;;;;;;16.55;4.47;;;24.00;89.00;;;;;;4983265;28;20031;-76
2022/08/04 13:25:43;;;;;;;16.13;4.27;;;24.40;88.90;;;;;;4991033;28;20038;-76
2022/08/04 13:28:25;;;;;;;7.28;3.22;;;24.80;89.30;;;;;;5000006;28;20433;-76
2022/08/04 13:30:57;;;;;;;13.70;4.20;;;25.20;88.90;;;;;;4987736;28;20383;-76
2022/08/04 13:33:41;;;;;;;5.43;3.08;;;25.50;88.40;;;;;;5014046;28;20129;-76
2022/08/04 13:36:08;;;;;;;12.50;4.10;;;26.10;87.50;;;;;;5002305;28;20030;-77
2022/08/04 13:38:37;;;;;;;11.23;4.57;;;26.20;87.00;;;;;;4992779;28;20030;-77
2022/08/04 13:41:05;;;;;;;18.25;5.32;;;26.00;86.20;;;;;;4987696;28;20076;-77